PWSweather.com
Personal Weather Stations
Station Observations
ISARDEGN48
BittiIT 08021

BittiIT 08021

Lat: 40.4805, Lon: 9.3887

Elevation: 1804

Station Type: La Crosse WS2355

http://meteobitti.altervista.org

High Low Average
Temperature 93.4°F34.1°C 72.0°F22.2°C 83.9°F28.8°C
Dew Point 63.7°F17.6°C 47.6°F8.7°C 56.1°F13.4°C
Winds 20.1 mph 32.3 kmh Calm Calm 4.0 mph SE6.4 kmh SE
Wind Gusts 114.0 mph183.5 kmh -- 10.0 mph16.1 kmh
Humidity 52% 27% 39%
Pressure 29.89 in1012.2 mb 29.82 in1009.8 mb -
Precipitation 0.00 in0.0 mm - -
Hour Temp Dew Point Humidity Winds Wind Gusts Pressure Precip Precip Rate Daily Precip Total
12:00 AM 73.6°F23.1°C 52.0°F11.1°C 47% 1.3 mph SW2.1 kmh SW 5.6 mph9.0 kmh 29.89 in1012.2 mb 0.00 in0.0 mm 0.00 in0.0 mm 0.00 in0.0 mm
12:05 AM 73.4°F23.0°C 51.8°F11.0°C 47% 2.5 mph SW4.0 kmh SW 6.0 mph9.7 kmh 29.89 in1012.2 mb 0.00 in0.0 mm 0.00 in0.0 mm 0.00 in0.0 mm
12:10 AM 73.2°F22.9°C 52.3°F11.3°C 48% 2.2 mph SW3.5 kmh SW 6.0 mph9.7 kmh 29.88 in1011.9 mb 0.00 in0.0 mm 0.00 in0.0 mm 0.00 in0.0 mm
12:15 AM 73.2°F22.9°C 52.3°F11.3°C 48% 3.6 mph SW5.8 kmh SW 5.1 mph8.2 kmh 29.88 in1011.9 mb 0.00 in0.0 mm 0.00 in0.0 mm 0.00 in0.0 mm
12:20 AM 73.2°F22.9°C 52.8°F11.6°C 49% 2.7 mph SW4.3 kmh SW 5.6 mph9.0 kmh 29.88 in1011.9 mb 0.00 in0.0 mm 0.00 in0.0 mm 0.00 in0.0 mm
12:25 AM 73.0°F22.8°C 52.7°F11.5°C 49% 2.2 mph SW3.5 kmh SW 5.6 mph9.0 kmh 29.88 in1011.9 mb 0.00 in0.0 mm 0.00 in0.0 mm 0.00 in0.0 mm
12:30 AM 73.2°F22.9°C 52.8°F11.6°C 49% 3.6 mph SW5.8 kmh SW 5.6 mph9.0 kmh 29.88 in1011.9 mb 0.00 in0.0 mm 0.00 in0.0 mm 0.00 in0.0 mm
12:35 AM 73.2°F22.9°C 52.8°F11.6°C 49% 3.1 mph SW5.0 kmh SW 6.7 mph10.8 kmh 29.88 in1011.9 mb 0.00 in0.0 mm 0.00 in0.0 mm 0.00 in0.0 mm
12:40 AM 73.2°F22.9°C 52.8°F11.6°C 49% 6.0 mph SW9.7 kmh SW 6.7 mph10.8 kmh 29.88 in1011.9 mb 0.00 in0.0 mm 0.00 in0.0 mm 0.00 in0.0 mm
12:45 AM 73.2°F22.9°C 52.8°F11.6°C 49% 1.6 mph SW2.6 kmh SW 6.5 mph10.5 kmh 29.88 in1011.9 mb 0.00 in0.0 mm 0.00 in0.0 mm 0.00 in0.0 mm
12:50 AM 73.2°F22.9°C 52.8°F11.6°C 49% 2.2 mph SW3.5 kmh SW 6.0 mph9.7 kmh 29.88 in1011.9 mb 0.00 in0.0 mm 0.00 in0.0 mm 0.00 in0.0 mm
12:55 AM 73.6°F23.1°C 53.2°F11.8°C 49% 2.7 mph SW4.3 kmh SW 6.0 mph9.7 kmh 29.88 in1011.9 mb 0.00 in0.0 mm 0.00 in0.0 mm 0.00 in0.0 mm
01:00 AM 73.8°F23.2°C 53.3°F11.8°C 49% 2.2 mph SW3.5 kmh SW 4.5 mph7.2 kmh 29.88 in1011.9 mb 0.00 in0.0 mm 0.00 in0.0 mm 0.00 in0.0 mm
01:05 AM 73.9°F23.3°C 53.5°F11.9°C 49% Calm Calm 4.5 mph7.2 kmh 29.88 in1011.9 mb 0.00 in0.0 mm 0.00 in0.0 mm 0.00 in0.0 mm
01:10 AM 74.5°F23.6°C 53.5°F11.9°C 48% Calm Calm 7.8 mph12.6 kmh 29.87 in1011.5 mb 0.00 in0.0 mm 0.00 in0.0 mm 0.00 in0.0 mm
01:15 AM 74.8°F23.8°C 53.2°F11.8°C 47% 1.6 mph SW2.6 kmh SW 7.8 mph12.6 kmh 29.87 in1011.5 mb 0.00 in0.0 mm 0.00 in0.0 mm 0.00 in0.0 mm
01:20 AM 74.3°F23.5°C 53.3°F11.8°C 48% 5.1 mph NE8.2 kmh NE 6.3 mph10.1 kmh 29.87 in1011.5 mb 0.00 in0.0 mm 0.00 in0.0 mm 0.00 in0.0 mm
01:25 AM 73.9°F23.3°C 52.9°F11.6°C 48% Calm Calm 5.1 mph8.2 kmh 29.87 in1011.5 mb 0.00 in0.0 mm 0.00 in0.0 mm 0.00 in0.0 mm
01:30 AM 73.6°F23.1°C 52.6°F11.4°C 48% 7.4 mph SW11.9 kmh SW 8.7 mph14.0 kmh 29.88 in1011.9 mb 0.00 in0.0 mm 0.00 in0.0 mm 0.00 in0.0 mm
01:35 AM 76.1°F24.5°C 52.5°F11.4°C 44% 14.5 mph SSW23.3 kmh SSW 18.3 mph29.5 kmh 29.88 in1011.9 mb 0.00 in0.0 mm 0.00 in0.0 mm 0.00 in0.0 mm
01:40 AM 78.4°F25.8°C 52.8°F11.6°C 41% 12.3 mph SSW19.8 kmh SSW 18.3 mph29.5 kmh 29.88 in1011.9 mb 0.00 in0.0 mm 0.00 in0.0 mm 0.00 in0.0 mm
01:45 AM 79.2°F26.2°C 52.8°F11.6°C 40% 15.9 mph SSW25.6 kmh SSW 19.7 mph31.7 kmh 29.88 in1011.9 mb 0.00 in0.0 mm 0.00 in0.0 mm 0.00 in0.0 mm
01:50 AM 79.3°F26.3°C 52.2°F11.2°C 39% 15.9 mph SSW25.6 kmh SSW 20.8 mph33.5 kmh 29.89 in1012.2 mb 0.00 in0.0 mm 0.00 in0.0 mm 0.00 in0.0 mm
01:55 AM 79.2°F26.2°C 52.8°F11.6°C 40% 15.9 mph SSW25.6 kmh SSW 20.8 mph33.5 kmh 29.89 in1012.2 mb 0.00 in0.0 mm 0.00 in0.0 mm 0.00 in0.0 mm
02:00 AM 79.2°F26.2°C 52.8°F11.6°C 40% 17.0 mph SSW27.4 kmh SSW 19.2 mph30.9 kmh 29.89 in1012.2 mb 0.00 in0.0 mm 0.00 in0.0 mm 0.00 in0.0 mm
02:05 AM 78.8°F26.0°C 52.5°F11.4°C 40% 16.1 mph SSW25.9 kmh SSW 19.7 mph31.7 kmh 29.89 in1012.2 mb 0.00 in0.0 mm 0.00 in0.0 mm 0.00 in0.0 mm
02:10 AM 78.4°F25.8°C 52.8°F11.6°C 41% 16.8 mph SSW27.0 kmh SSW 19.7 mph31.7 kmh 29.89 in1012.2 mb 0.00 in0.0 mm 0.00 in0.0 mm 0.00 in0.0 mm
02:15 AM 77.4°F25.2°C 52.4°F11.3°C 42% 16.8 mph SSW27.0 kmh SSW 19.5 mph31.4 kmh 29.89 in1012.2 mb 0.00 in0.0 mm 0.00 in0.0 mm 0.00 in0.0 mm
02:20 AM 78.1°F25.6°C 51.9°F11.1°C 40% 17.2 mph SSW27.7 kmh SSW 19.5 mph31.4 kmh 29.88 in1011.9 mb 0.00 in0.0 mm 0.00 in0.0 mm 0.00 in0.0 mm
02:25 AM 78.6°F25.9°C 52.4°F11.3°C 40% 12.1 mph SSW19.5 kmh SSW 21.7 mph34.9 kmh 29.89 in1012.2 mb 0.00 in0.0 mm 0.00 in0.0 mm 0.00 in0.0 mm
02:30 AM 79.3°F26.3°C 51.5°F10.8°C 38% 9.6 mph SSW15.4 kmh SSW 21.7 mph34.9 kmh 29.88 in1011.9 mb 0.00 in0.0 mm 0.00 in0.0 mm 0.00 in0.0 mm
02:35 AM 79.5°F26.4°C 50.8°F10.4°C 37% 13.4 mph SSW21.6 kmh SSW 20.8 mph33.5 kmh 29.88 in1011.9 mb 0.00 in0.0 mm 0.00 in0.0 mm 0.00 in0.0 mm
02:40 AM 79.9°F26.6°C 51.9°F11.1°C 38% 20.1 mph SSW32.3 kmh SSW 21.9 mph35.2 kmh 29.88 in1011.9 mb 0.00 in0.0 mm 0.00 in0.0 mm 0.00 in0.0 mm
02:45 AM 79.7°F26.5°C 51.0°F10.6°C 37% 13.4 mph SSW21.6 kmh SSW 21.9 mph35.2 kmh 29.88 in1011.9 mb 0.00 in0.0 mm 0.00 in0.0 mm 0.00 in0.0 mm
02:50 AM 79.7°F26.5°C 50.8°F10.4°C 37% 16.3 mph SSW26.2 kmh SSW 21.9 mph35.2 kmh 29.88 in1011.9 mb 0.00 in0.0 mm 0.00 in0.0 mm 0.00 in0.0 mm
02:55 AM 79.5°F26.4°C 51.6°F10.9°C 38% 11.9 mph SSW19.2 kmh SSW 21.7 mph34.9 kmh 29.88 in1011.9 mb 0.00 in0.0 mm 0.00 in0.0 mm 0.00 in0.0 mm
03:00 AM 79.3°F26.3°C 50.7°F10.4°C 37% 12.8 mph SSW20.6 kmh SSW 20.8 mph33.5 kmh 29.88 in1011.9 mb 0.00 in0.0 mm 0.00 in0.0 mm 0.00 in0.0 mm
03:05 AM 79.3°F26.3°C 50.7°F10.4°C 37% 4.5 mph SSW7.2 kmh SSW 16.8 mph27.0 kmh 29.88 in1011.9 mb 0.00 in0.0 mm 0.00 in0.0 mm 0.00 in0.0 mm
03:10 AM 79.5°F26.4°C 50.8°F10.4°C 37% 11.0 mph SSW17.7 kmh SSW 16.8 mph27.0 kmh 29.88 in1011.9 mb 0.00 in0.0 mm 0.00 in0.0 mm 0.00 in0.0 mm
03:15 AM 79.5°F26.4°C 50.8°F10.4°C 37% 5.1 mph SSW8.2 kmh SSW 14.1 mph22.7 kmh 29.88 in1011.9 mb 0.00 in0.0 mm 0.00 in0.0 mm 0.00 in0.0 mm
03:20 AM 79.2°F26.2°C 50.5°F10.3°C 37% 1.3 mph SSW2.1 kmh SSW 14.1 mph22.7 kmh 29.88 in1011.9 mb 0.00 in0.0 mm 0.00 in0.0 mm 0.00 in0.0 mm
03:25 AM 78.6°F25.9°C 50.8°F10.4°C 38% Calm Calm 6.7 mph10.8 kmh 29.88 in1011.9 mb 0.00 in0.0 mm 0.00 in0.0 mm 0.00 in0.0 mm
03:30 AM 78.1°F25.6°C 51.9°F11.1°C 40% 5.6 mph SW9.0 kmh SW 5.6 mph9.0 kmh 29.88 in1011.9 mb 0.00 in0.0 mm 0.00 in0.0 mm 0.00 in0.0 mm
03:35 AM 77.5°F25.3°C 51.4°F10.8°C 40% 1.8 mph SW2.9 kmh SW 5.6 mph9.0 kmh 29.87 in1011.5 mb 0.00 in0.0 mm 0.00 in0.0 mm 0.00 in0.0 mm
03:40 AM 77.2°F25.1°C 51.7°F10.9°C 41% Calm Calm 4.0 mph6.4 kmh 29.86 in1011.2 mb 0.00 in0.0 mm 0.00 in0.0 mm 0.00 in0.0 mm
03:45 AM 76.6°F24.8°C 52.4°F11.3°C 43% 1.8 mph SW2.9 kmh SW 8.5 mph13.7 kmh 29.86 in1011.2 mb 0.00 in0.0 mm 0.00 in0.0 mm 0.00 in0.0 mm
03:50 AM 76.3°F24.6°C 51.5°F10.8°C 42% Calm Calm 8.5 mph13.7 kmh 29.86 in1011.2 mb 0.00 in0.0 mm 0.00 in0.0 mm 0.00 in0.0 mm
03:55 AM 75.7°F24.3°C 52.2°F11.2°C 44% 2.2 mph SW3.5 kmh SW 7.4 mph11.9 kmh 29.86 in1011.2 mb 0.00 in0.0 mm 0.00 in0.0 mm 0.00 in0.0 mm
04:00 AM 75.2°F24.0°C 51.7°F10.9°C 44% 1.6 mph SW2.6 kmh SW 7.4 mph11.9 kmh 29.86 in1011.2 mb 0.00 in0.0 mm 0.00 in0.0 mm 0.00 in0.0 mm
04:05 AM 74.8°F23.8°C 52.0°F11.1°C 45% 1.6 mph SW2.6 kmh SW 6.0 mph9.7 kmh 29.86 in1011.2 mb 0.00 in0.0 mm 0.00 in0.0 mm 0.00 in0.0 mm
04:10 AM 74.5°F23.6°C 51.7°F10.9°C 45% 2.5 mph SW4.0 kmh SW 3.4 mph5.5 kmh 29.86 in1011.2 mb 0.00 in0.0 mm 0.00 in0.0 mm 0.00 in0.0 mm
04:15 AM 74.1°F23.4°C 51.3°F10.7°C 45% 2.0 mph SW3.2 kmh SW 3.6 mph5.8 kmh 29.86 in1011.2 mb 0.00 in0.0 mm 0.00 in0.0 mm 0.00 in0.0 mm
04:20 AM 74.1°F23.4°C 50.7°F10.4°C 44% Calm Calm 4.0 mph6.4 kmh 29.86 in1011.2 mb 0.00 in0.0 mm 0.00 in0.0 mm 0.00 in0.0 mm
04:25 AM 74.1°F23.4°C 50.1°F10.1°C 43% 0.7 mph SW1.1 kmh SW 4.0 mph6.4 kmh 29.86 in1011.2 mb 0.00 in0.0 mm 0.00 in0.0 mm 0.00 in0.0 mm
04:30 AM 73.9°F23.3°C 51.1°F10.6°C 45% Calm Calm 2.2 mph3.5 kmh 29.87 in1011.5 mb 0.00 in0.0 mm 0.00 in0.0 mm 0.00 in0.0 mm
04:35 AM 73.8°F23.2°C 49.8°F9.9°C 43% Calm Calm 1.8 mph2.9 kmh 29.87 in1011.5 mb 0.00 in0.0 mm 0.00 in0.0 mm 0.00 in0.0 mm
04:40 AM 73.6°F23.1°C 50.2°F10.1°C 44% Calm Calm 1.8 mph2.9 kmh 29.87 in1011.5 mb 0.00 in0.0 mm 0.00 in0.0 mm 0.00 in0.0 mm
04:45 AM 73.2°F22.9°C 48.7°F9.3°C 42% Calm Calm 1.6 mph2.6 kmh 29.87 in1011.5 mb 0.00 in0.0 mm 0.00 in0.0 mm 0.00 in0.0 mm
04:50 AM 73.2°F22.9°C 48.7°F9.3°C 42% 1.6 mph SW2.6 kmh SW 2.5 mph4.0 kmh 29.87 in1011.5 mb 0.00 in0.0 mm 0.00 in0.0 mm 0.00 in0.0 mm
04:55 AM 73.0°F22.8°C 49.1°F9.5°C 43% 1.6 mph SW2.6 kmh SW 2.5 mph4.0 kmh 29.87 in1011.5 mb 0.00 in0.0 mm 0.00 in0.0 mm 0.00 in0.0 mm
05:00 AM 73.0°F22.8°C 49.1°F9.5°C 43% 2.2 mph SW3.5 kmh SW 3.8 mph6.1 kmh 29.87 in1011.5 mb 0.00 in0.0 mm 0.00 in0.0 mm 0.00 in0.0 mm
05:05 AM 72.9°F22.7°C 49.0°F9.4°C 43% 1.8 mph SW2.9 kmh SW 3.8 mph6.1 kmh 29.87 in1011.5 mb 0.00 in0.0 mm 0.00 in0.0 mm 0.00 in0.0 mm
05:10 AM 72.7°F22.6°C 48.8°F9.3°C 43% Calm Calm 114.0 mph183.5 kmh 29.87 in1011.5 mb 0.00 in0.0 mm 0.00 in0.0 mm 0.00 in0.0 mm
05:15 AM 72.5°F22.5°C 48.6°F9.2°C 43% 1.6 mph NNW2.6 kmh NNW 114.0 mph183.5 kmh 29.87 in1011.5 mb 0.00 in0.0 mm 0.00 in0.0 mm 0.00 in0.0 mm
05:20 AM 72.3°F22.4°C 47.9°F8.8°C 42% 1.1 mph SW1.8 kmh SW 1.8 mph2.9 kmh 29.87 in1011.5 mb 0.00 in0.0 mm 0.00 in0.0 mm 0.00 in0.0 mm
05:25 AM 72.3°F22.4°C 47.9°F8.8°C 42% Calm Calm 1.6 mph2.6 kmh 29.87 in1011.5 mb 0.00 in0.0 mm 0.00 in0.0 mm 0.00 in0.0 mm
05:30 AM 72.1°F22.3°C 48.3°F9.1°C 43% Calm Calm 1.6 mph2.6 kmh 29.87 in1011.5 mb 0.00 in0.0 mm 0.00 in0.0 mm 0.00 in0.0 mm
05:35 AM 72.0°F22.2°C 47.6°F8.7°C 42% 1.3 mph SW2.1 kmh SW 2.0 mph3.2 kmh 29.88 in1011.9 mb 0.00 in0.0 mm 0.00 in0.0 mm 0.00 in0.0 mm
05:40 AM 72.1°F22.3°C 48.3°F9.1°C 43% Calm Calm 2.5 mph4.0 kmh 29.88 in1011.9 mb 0.00 in0.0 mm 0.00 in0.0 mm 0.00 in0.0 mm
05:45 AM 72.3°F22.4°C 47.9°F8.8°C 42% 1.1 mph SW1.8 kmh SW 2.9 mph4.7 kmh 29.89 in1012.2 mb 0.00 in0.0 mm 0.00 in0.0 mm 0.00 in0.0 mm
05:50 AM 72.5°F22.5°C 49.2°F9.6°C 44% 0.7 mph SW1.1 kmh SW 3.1 mph5.0 kmh 29.88 in1011.9 mb 0.00 in0.0 mm 0.00 in0.0 mm 0.00 in0.0 mm
05:55 AM 72.3°F22.4°C 49.1°F9.5°C 44% Calm Calm 3.1 mph5.0 kmh 29.89 in1012.2 mb 0.00 in0.0 mm 0.00 in0.0 mm 0.00 in0.0 mm
06:00 AM 72.5°F22.5°C 49.2°F9.6°C 44% Calm Calm 2.9 mph4.7 kmh 29.89 in1012.2 mb 0.00 in0.0 mm 0.00 in0.0 mm 0.00 in0.0 mm
06:05 AM 72.9°F22.7°C 49.5°F9.7°C 44% 1.1 mph ENE1.8 kmh ENE 1.6 mph2.6 kmh 29.88 in1011.9 mb 0.00 in0.0 mm 0.00 in0.0 mm 0.00 in0.0 mm
06:10 AM 73.0°F22.8°C 49.7°F9.8°C 44% Calm Calm 1.3 mph2.1 kmh 29.88 in1011.9 mb 0.00 in0.0 mm 0.00 in0.0 mm 0.00 in0.0 mm
06:15 AM 73.2°F22.9°C 49.3°F9.6°C 43% Calm Calm 1.3 mph2.1 kmh 29.88 in1011.9 mb 0.00 in0.0 mm 0.00 in0.0 mm 0.00 in0.0 mm
06:20 AM 73.4°F23.0°C 50.0°F10.0°C 44% Calm Calm 1.1 mph1.8 kmh 29.88 in1011.9 mb 0.00 in0.0 mm 0.00 in0.0 mm 0.00 in0.0 mm
06:25 AM 73.6°F23.1°C 49.0°F9.4°C 42% Calm Calm 1.1 mph1.8 kmh 29.88 in1011.9 mb 0.00 in0.0 mm 0.00 in0.0 mm 0.00 in0.0 mm
06:30 AM 73.9°F23.3°C 49.3°F9.6°C 42% Calm Calm 2.5 mph4.0 kmh 29.88 in1011.9 mb 0.00 in0.0 mm 0.00 in0.0 mm 0.00 in0.0 mm
06:35 AM 74.7°F23.7°C 50.0°F10.0°C 42% 2.5 mph SSW4.0 kmh SSW 2.9 mph4.7 kmh 29.88 in1011.9 mb 0.00 in0.0 mm 0.00 in0.0 mm 0.00 in0.0 mm
06:40 AM 75.2°F24.0°C 49.9°F9.9°C 41% Calm Calm 2.9 mph4.7 kmh 29.88 in1011.9 mb 0.00 in0.0 mm 0.00 in0.0 mm 0.00 in0.0 mm
06:45 AM 75.4°F24.1°C 51.3°F10.7°C 43% Calm Calm 2.7 mph4.3 kmh 29.88 in1011.9 mb 0.00 in0.0 mm 0.00 in0.0 mm 0.00 in0.0 mm
06:50 AM 75.7°F24.3°C 51.0°F10.6°C 42% Calm Calm 2.7 mph4.3 kmh 29.88 in1011.9 mb 0.00 in0.0 mm 0.00 in0.0 mm 0.00 in0.0 mm
06:55 AM 76.1°F24.5°C 51.3°F10.7°C 42% Calm Calm 1.8 mph2.9 kmh 29.88 in1011.9 mb 0.00 in0.0 mm 0.00 in0.0 mm 0.00 in0.0 mm
07:00 AM 76.8°F24.9°C 51.3°F10.7°C 41% 0.9 mph SSW1.4 kmh SSW 1.3 mph2.1 kmh 29.87 in1011.5 mb 0.00 in0.0 mm 0.00 in0.0 mm 0.00 in0.0 mm
07:05 AM 77.4°F25.2°C 51.2°F10.7°C 40% Calm Calm 1.3 mph2.1 kmh 29.87 in1011.5 mb 0.00 in0.0 mm 0.00 in0.0 mm 0.00 in0.0 mm
07:10 AM 78.1°F25.6°C 51.9°F11.1°C 40% Calm Calm 1.3 mph2.1 kmh 29.88 in1011.9 mb 0.00 in0.0 mm 0.00 in0.0 mm 0.00 in0.0 mm
07:15 AM 79.0°F26.1°C 52.7°F11.5°C 40% Calm Calm 0.9 mph1.4 kmh 29.88 in1011.9 mb 0.00 in0.0 mm 0.00 in0.0 mm 0.00 in0.0 mm
07:20 AM 79.7°F26.5°C 52.6°F11.4°C 39% Calm Calm 1.6 mph2.6 kmh 29.88 in1011.9 mb 0.00 in0.0 mm 0.00 in0.0 mm 0.00 in0.0 mm
07:25 AM 80.1°F26.7°C 50.6°F10.3°C 36% Calm Calm 1.6 mph2.6 kmh 29.88 in1011.9 mb 0.00 in0.0 mm 0.00 in0.0 mm 0.00 in0.0 mm
07:30 AM 81.0°F27.2°C 52.1°F11.2°C 37% Calm Calm 1.6 mph2.6 kmh 29.88 in1011.9 mb 0.00 in0.0 mm 0.00 in0.0 mm 0.00 in0.0 mm
07:35 AM 81.7°F27.6°C 52.0°F11.1°C 36% Calm Calm -- 29.88 in1011.9 mb 0.00 in0.0 mm 0.00 in0.0 mm 0.00 in0.0 mm
07:40 AM 82.8°F28.2°C 52.0°F11.1°C 35% Calm Calm -- 29.88 in1011.9 mb 0.00 in0.0 mm 0.00 in0.0 mm 0.00 in0.0 mm
07:45 AM 83.1°F28.4°C 51.7°F10.9°C 34% Calm Calm 1.3 mph2.1 kmh 29.88 in1011.9 mb 0.00 in0.0 mm 0.00 in0.0 mm 0.00 in0.0 mm
07:50 AM 83.1°F28.4°C 52.4°F11.3°C 35% Calm Calm 2.2 mph3.5 kmh 29.87 in1011.5 mb 0.00 in0.0 mm 0.00 in0.0 mm 0.00 in0.0 mm
07:55 AM 83.1°F28.4°C 54.0°F12.2°C 37% 1.1 mph NE1.8 kmh NE 2.2 mph3.5 kmh 29.87 in1011.5 mb 0.00 in0.0 mm 0.00 in0.0 mm 0.00 in0.0 mm
08:00 AM 83.1°F28.4°C 54.0°F12.2°C 37% Calm Calm 2.0 mph3.2 kmh 29.87 in1011.5 mb 0.00 in0.0 mm 0.00 in0.0 mm 0.00 in0.0 mm
08:05 AM 83.7°F28.7°C 54.5°F12.5°C 37% Calm Calm 1.8 mph2.9 kmh 29.87 in1011.5 mb 0.00 in0.0 mm 0.00 in0.0 mm 0.00 in0.0 mm
08:10 AM 84.2°F29.0°C 51.8°F11.0°C 33% 2.2 mph NE3.5 kmh NE 3.1 mph5.0 kmh 29.87 in1011.5 mb 0.00 in0.0 mm 0.00 in0.0 mm 0.00 in0.0 mm
08:15 AM 84.0°F28.9°C 51.7°F10.9°C 33% 3.6 mph NE5.8 kmh NE 3.8 mph6.1 kmh 29.87 in1011.5 mb 0.00 in0.0 mm 0.00 in0.0 mm 0.00 in0.0 mm
08:20 AM 83.8°F28.8°C 53.1°F11.7°C 35% 3.1 mph NE5.0 kmh NE 3.8 mph6.1 kmh 29.87 in1011.5 mb 0.00 in0.0 mm 0.00 in0.0 mm 0.00 in0.0 mm
08:25 AM 83.8°F28.8°C 53.1°F11.7°C 35% 3.4 mph NE5.5 kmh NE 3.8 mph6.1 kmh 29.87 in1011.5 mb 0.00 in0.0 mm 0.00 in0.0 mm 0.00 in0.0 mm
08:30 AM 83.8°F28.8°C 53.1°F11.7°C 35% 2.5 mph NE4.0 kmh NE 4.3 mph6.9 kmh 29.87 in1011.5 mb 0.00 in0.0 mm 0.00 in0.0 mm 0.00 in0.0 mm
08:35 AM 84.0°F28.9°C 52.5°F11.4°C 34% 2.0 mph NNE3.2 kmh NNE 4.3 mph6.9 kmh 29.87 in1011.5 mb 0.00 in0.0 mm 0.00 in0.0 mm 0.00 in0.0 mm
08:40 AM 84.6°F29.2°C 53.0°F11.7°C 34% 2.0 mph NNE3.2 kmh NNE 4.0 mph6.4 kmh 29.87 in1011.5 mb 0.00 in0.0 mm 0.00 in0.0 mm 0.00 in0.0 mm
08:45 AM 84.9°F29.4°C 53.3°F11.8°C 34% 2.2 mph NNE3.5 kmh NNE 4.0 mph6.4 kmh 29.87 in1011.5 mb 0.00 in0.0 mm 0.00 in0.0 mm 0.00 in0.0 mm
08:50 AM 85.3°F29.6°C 53.4°F11.9°C 34% 3.1 mph NE5.0 kmh NE 4.5 mph7.2 kmh 29.86 in1011.2 mb 0.00 in0.0 mm 0.00 in0.0 mm 0.00 in0.0 mm
08:55 AM 85.6°F29.8°C 53.9°F12.2°C 34% 4.5 mph NE7.2 kmh NE 5.1 mph8.2 kmh 29.87 in1011.5 mb 0.00 in0.0 mm 0.00 in0.0 mm 0.00 in0.0 mm
09:00 AM 85.6°F29.8°C 53.9°F12.2°C 34% 3.4 mph NE5.5 kmh NE 5.1 mph8.2 kmh 29.87 in1011.5 mb 0.00 in0.0 mm 0.00 in0.0 mm 0.00 in0.0 mm
09:05 AM 85.8°F29.9°C 54.1°F12.3°C 34% 3.6 mph NE5.8 kmh NE 6.7 mph10.8 kmh 29.87 in1011.5 mb 0.00 in0.0 mm 0.00 in0.0 mm 0.00 in0.0 mm
09:10 AM 85.8°F29.9°C 54.1°F12.3°C 34% 5.1 mph NE8.2 kmh NE 7.2 mph11.6 kmh 29.87 in1011.5 mb 0.00 in0.0 mm 0.00 in0.0 mm 0.00 in0.0 mm
09:15 AM 86.2°F30.1°C 53.6°F12.0°C 33% 1.3 mph NNE2.1 kmh NNE 7.6 mph12.2 kmh 29.87 in1011.5 mb 0.00 in0.0 mm 0.00 in0.0 mm 0.00 in0.0 mm
09:20 AM 86.5°F30.3°C 53.9°F12.2°C 33% 2.2 mph NE3.5 kmh NE 7.6 mph12.2 kmh 29.87 in1011.5 mb 0.00 in0.0 mm 0.00 in0.0 mm 0.00 in0.0 mm
09:25 AM 86.7°F30.4°C 53.2°F11.8°C 32% 2.7 mph NE4.3 kmh NE 6.3 mph10.1 kmh 29.86 in1011.2 mb 0.00 in0.0 mm 0.00 in0.0 mm 0.00 in0.0 mm
09:30 AM 87.6°F30.9°C 53.2°F11.8°C 31% 0.9 mph NE1.4 kmh NE 6.0 mph9.7 kmh 29.87 in1011.5 mb 0.00 in0.0 mm 0.00 in0.0 mm 0.00 in0.0 mm
09:35 AM 88.5°F31.4°C 52.1°F11.2°C 29% 2.5 mph E4.0 kmh E 5.4 mph8.7 kmh 29.87 in1011.5 mb 0.00 in0.0 mm 0.00 in0.0 mm 0.00 in0.0 mm
09:40 AM 88.9°F31.6°C 51.3°F10.7°C 28% 4.0 mph SSE6.4 kmh SSE 6.0 mph9.7 kmh 29.87 in1011.5 mb 0.00 in0.0 mm 0.00 in0.0 mm 0.00 in0.0 mm
09:45 AM 89.4°F31.9°C 50.7°F10.4°C 27% 5.1 mph S8.2 kmh S 8.3 mph13.4 kmh 29.87 in1011.5 mb 0.00 in0.0 mm 0.00 in0.0 mm 0.00 in0.0 mm
09:50 AM 88.9°F31.6°C 51.3°F10.7°C 28% 8.3 mph SSW13.4 kmh SSW 10.5 mph16.9 kmh 29.86 in1011.2 mb 0.00 in0.0 mm 0.00 in0.0 mm 0.00 in0.0 mm
09:55 AM 88.5°F31.4°C 52.1°F11.2°C 29% Calm Calm 10.5 mph16.9 kmh 29.87 in1011.5 mb 0.00 in0.0 mm 0.00 in0.0 mm 0.00 in0.0 mm
10:00 AM 88.2°F31.2°C 50.7°F10.4°C 28% 7.2 mph SW11.6 kmh SW 10.5 mph16.9 kmh 29.87 in1011.5 mb 0.00 in0.0 mm 0.00 in0.0 mm 0.00 in0.0 mm
10:05 AM 88.2°F31.2°C 50.7°F10.4°C 28% 4.7 mph SW7.6 kmh SW 10.5 mph16.9 kmh 29.86 in1011.2 mb 0.00 in0.0 mm 0.00 in0.0 mm 0.00 in0.0 mm
10:10 AM 88.0°F31.1°C 51.6°F10.9°C 29% 6.9 mph SW11.1 kmh SW 13.0 mph20.9 kmh 29.86 in1011.2 mb 0.00 in0.0 mm 0.00 in0.0 mm 0.00 in0.0 mm
10:15 AM 87.6°F30.9°C 54.0°F12.2°C 32% 10.7 mph SW17.2 kmh SW 13.0 mph20.9 kmh 29.86 in1011.2 mb 0.00 in0.0 mm 0.00 in0.0 mm 0.00 in0.0 mm
10:20 AM 87.6°F30.9°C 54.8°F12.7°C 33% 2.0 mph SW3.2 kmh SW 11.9 mph19.2 kmh 29.87 in1011.5 mb 0.00 in0.0 mm 0.00 in0.0 mm 0.00 in0.0 mm
10:25 AM 87.8°F31.0°C 55.0°F12.8°C 33% 9.2 mph SW14.8 kmh SW 16.3 mph26.2 kmh 29.87 in1011.5 mb 0.00 in0.0 mm 0.00 in0.0 mm 0.00 in0.0 mm
10:30 AM 87.4°F30.8°C 54.6°F12.6°C 33% 7.8 mph SW12.6 kmh SW 16.3 mph26.2 kmh 29.87 in1011.5 mb 0.00 in0.0 mm 0.00 in0.0 mm 0.00 in0.0 mm
10:35 AM 86.9°F30.5°C 56.6°F13.7°C 36% 6.7 mph SW10.8 kmh SW 15.0 mph24.1 kmh 29.87 in1011.5 mb 0.00 in0.0 mm 0.00 in0.0 mm 0.00 in0.0 mm
10:40 AM 86.7°F30.4°C 56.4°F13.6°C 36% 1.3 mph SW2.1 kmh SW 15.0 mph24.1 kmh 29.87 in1011.5 mb 0.00 in0.0 mm 0.00 in0.0 mm 0.00 in0.0 mm
10:45 AM 87.6°F30.9°C 55.6°F13.1°C 34% 4.3 mph SW6.9 kmh SW 10.3 mph16.6 kmh 29.86 in1011.2 mb 0.00 in0.0 mm 0.00 in0.0 mm 0.00 in0.0 mm
10:50 AM 88.2°F31.2°C 54.4°F12.4°C 32% 3.1 mph SW5.0 kmh SW 9.4 mph15.1 kmh 29.86 in1011.2 mb 0.00 in0.0 mm 0.00 in0.0 mm 0.00 in0.0 mm
10:55 AM 88.5°F31.4°C 54.8°F12.7°C 32% 5.4 mph WSW8.7 kmh WSW 9.4 mph15.1 kmh 29.87 in1011.5 mb 0.00 in0.0 mm 0.00 in0.0 mm 0.00 in0.0 mm
11:00 AM 89.1°F31.7°C 55.2°F12.9°C 32% 2.2 mph WSW3.5 kmh WSW 8.9 mph14.3 kmh 29.87 in1011.5 mb 0.00 in0.0 mm 0.00 in0.0 mm 0.00 in0.0 mm
11:05 AM 89.2°F31.8°C 56.2°F13.4°C 33% 9.2 mph WSW14.8 kmh WSW 10.3 mph16.6 kmh 29.87 in1011.5 mb 0.00 in0.0 mm 0.00 in0.0 mm 0.00 in0.0 mm
11:10 AM 88.9°F31.6°C 57.5°F14.2°C 35% 1.3 mph SW2.1 kmh SW 11.6 mph18.7 kmh 29.86 in1011.2 mb 0.00 in0.0 mm 0.00 in0.0 mm 0.00 in0.0 mm
11:15 AM 89.4°F31.9°C 57.9°F14.4°C 35% 4.5 mph SSW7.2 kmh SSW 11.6 mph18.7 kmh 29.86 in1011.2 mb 0.00 in0.0 mm 0.00 in0.0 mm 0.00 in0.0 mm
11:20 AM 89.4°F31.9°C 57.9°F14.4°C 35% 3.8 mph S6.1 kmh S 11.2 mph18.0 kmh 29.86 in1011.2 mb 0.00 in0.0 mm 0.00 in0.0 mm 0.00 in0.0 mm
11:25 AM 88.9°F31.6°C 57.5°F14.2°C 36% 3.6 mph S5.8 kmh S 11.2 mph18.0 kmh 29.86 in1011.2 mb 0.00 in0.0 mm 0.00 in0.0 mm 0.00 in0.0 mm
11:30 AM 88.7°F31.5°C 56.5°F13.6°C 34% Calm Calm 10.3 mph16.6 kmh 29.85 in1010.8 mb 0.00 in0.0 mm 0.00 in0.0 mm 0.00 in0.0 mm
11:35 AM 89.2°F31.8°C 57.8°F14.3°C 35% Calm Calm 10.5 mph16.9 kmh 29.85 in1010.8 mb 0.00 in0.0 mm 0.00 in0.0 mm 0.00 in0.0 mm
11:40 AM 88.9°F31.6°C 59.1°F15.1°C 37% 6.5 mph S10.5 kmh S 12.3 mph19.8 kmh 29.85 in1010.8 mb 0.00 in0.0 mm 0.00 in0.0 mm 0.00 in0.0 mm
11:45 AM 88.5°F31.4°C 58.8°F14.9°C 37% 3.8 mph S6.1 kmh S 12.5 mph20.1 kmh 29.84 in1010.5 mb 0.00 in0.0 mm 0.00 in0.0 mm 0.00 in0.0 mm
11:50 AM 89.2°F31.8°C 61.0°F16.1°C 39% 3.8 mph SSW6.1 kmh SSW 14.3 mph23.0 kmh 29.84 in1010.5 mb 0.00 in0.0 mm 0.00 in0.0 mm 0.00 in0.0 mm
11:55 AM 89.8°F32.1°C 59.8°F15.4°C 37% Calm Calm 14.3 mph23.0 kmh 29.84 in1010.5 mb 0.00 in0.0 mm 0.00 in0.0 mm 0.00 in0.0 mm
12:00 PM 90.1°F32.3°C 60.2°F15.7°C 37% 2.9 mph S4.7 kmh S 10.5 mph16.9 kmh 29.85 in1010.8 mb 0.00 in0.0 mm 0.00 in0.0 mm 0.00 in0.0 mm
12:05 PM 89.8°F32.1°C 59.8°F15.4°C 37% 6.9 mph S11.1 kmh S 10.5 mph16.9 kmh 29.85 in1010.8 mb 0.00 in0.0 mm 0.00 in0.0 mm 0.00 in0.0 mm
12:10 PM 89.4°F31.9°C 59.5°F15.3°C 37% 4.7 mph S7.6 kmh S 11.4 mph18.3 kmh 29.85 in1010.8 mb 0.00 in0.0 mm 0.00 in0.0 mm 0.00 in0.0 mm
12:15 PM 89.8°F32.1°C 59.1°F15.1°C 36% 6.3 mph SW10.1 kmh SW 11.4 mph18.3 kmh 29.85 in1010.8 mb 0.00 in0.0 mm 0.00 in0.0 mm 0.00 in0.0 mm
12:20 PM 89.4°F31.9°C 61.1°F16.2°C 39% 1.3 mph SW2.1 kmh SW 12.1 mph19.5 kmh 29.85 in1010.8 mb 0.00 in0.0 mm 0.00 in0.0 mm 0.00 in0.0 mm
12:25 PM 89.8°F32.1°C 61.4°F16.3°C 39% 4.0 mph SW6.4 kmh SW 12.1 mph19.5 kmh 29.85 in1010.8 mb 0.00 in0.0 mm 0.00 in0.0 mm 0.00 in0.0 mm
12:30 PM 90.0°F32.2°C 61.6°F16.4°C 39% 4.3 mph WSW6.9 kmh WSW 9.2 mph14.8 kmh 29.85 in1010.8 mb 0.00 in0.0 mm 0.00 in0.0 mm 0.00 in0.0 mm
12:35 PM 90.3°F32.4°C 59.5°F15.3°C 36% 5.1 mph WSW8.2 kmh WSW 9.2 mph14.8 kmh 29.84 in1010.5 mb 0.00 in0.0 mm 0.00 in0.0 mm 0.00 in0.0 mm
12:40 PM 90.3°F32.4°C 59.5°F15.3°C 36% 3.1 mph SW5.0 kmh SW 12.1 mph19.5 kmh 29.84 in1010.5 mb 0.00 in0.0 mm 0.00 in0.0 mm 0.00 in0.0 mm
12:45 PM 90.3°F32.4°C 60.3°F15.7°C 37% 1.8 mph SW2.9 kmh SW 12.1 mph19.5 kmh 29.83 in1010.2 mb 0.00 in0.0 mm 0.00 in0.0 mm 0.00 in0.0 mm
12:50 PM 90.7°F32.6°C 59.9°F15.5°C 36% 4.0 mph SW6.4 kmh SW 11.0 mph17.7 kmh 29.83 in1010.2 mb 0.00 in0.0 mm 0.00 in0.0 mm 0.00 in0.0 mm
12:55 PM 91.2°F32.9°C 60.3°F15.7°C 36% 5.4 mph WSW8.7 kmh WSW 10.5 mph16.9 kmh 29.82 in1009.8 mb 0.00 in0.0 mm 0.00 in0.0 mm 0.00 in0.0 mm
01:00 PM 91.4°F33.0°C 60.5°F15.8°C 36% 4.9 mph SW7.9 kmh SW 10.7 mph17.2 kmh 29.82 in1009.8 mb 0.00 in0.0 mm 0.00 in0.0 mm 0.00 in0.0 mm
01:05 PM 91.8°F33.2°C 60.8°F16.0°C 36% 10.5 mph SW16.9 kmh SW 11.0 mph17.7 kmh 29.82 in1009.8 mb 0.00 in0.0 mm 0.00 in0.0 mm 0.00 in0.0 mm
01:10 PM 91.2°F32.9°C 61.9°F16.6°C 38% 5.1 mph SW8.2 kmh SW 11.0 mph17.7 kmh 29.82 in1009.8 mb 0.00 in0.0 mm 0.00 in0.0 mm 0.00 in0.0 mm
01:15 PM 91.9°F33.3°C 61.8°F16.6°C 37% 1.6 mph SW2.6 kmh SW 10.5 mph16.9 kmh 29.82 in1009.8 mb 0.00 in0.0 mm 0.00 in0.0 mm 0.00 in0.0 mm
01:20 PM 91.9°F33.3°C 62.6°F17.0°C 38% 4.5 mph SW7.2 kmh SW 14.8 mph23.8 kmh 29.82 in1009.8 mb 0.00 in0.0 mm 0.00 in0.0 mm 0.00 in0.0 mm
01:25 PM 91.9°F33.3°C 62.6°F17.0°C 38% 9.8 mph SW15.8 kmh SW 14.8 mph23.8 kmh 29.82 in1009.8 mb 0.00 in0.0 mm 0.00 in0.0 mm 0.00 in0.0 mm
01:30 PM 91.8°F33.2°C 63.2°F17.3°C 39% 7.4 mph SW11.9 kmh SW 17.2 mph27.7 kmh 29.82 in1009.8 mb 0.00 in0.0 mm 0.00 in0.0 mm 0.00 in0.0 mm
01:35 PM 91.8°F33.2°C 63.2°F17.3°C 39% 5.1 mph SSW8.2 kmh SSW 17.2 mph27.7 kmh 29.82 in1009.8 mb 0.00 in0.0 mm 0.00 in0.0 mm 0.00 in0.0 mm
01:40 PM 91.9°F33.3°C 62.6°F17.0°C 38% 8.3 mph SW13.4 kmh SW 15.0 mph24.1 kmh 29.82 in1009.8 mb 0.00 in0.0 mm 0.00 in0.0 mm 0.00 in0.0 mm
01:45 PM 92.1°F33.4°C 63.5°F17.5°C 39% 6.5 mph WSW10.5 kmh WSW 10.7 mph17.2 kmh 29.82 in1009.8 mb 0.00 in0.0 mm 0.00 in0.0 mm 0.00 in0.0 mm
01:50 PM 91.9°F33.3°C 63.4°F17.4°C 39% 6.7 mph SW10.8 kmh SW 12.3 mph19.8 kmh 29.82 in1009.8 mb 0.00 in0.0 mm 0.00 in0.0 mm 0.00 in0.0 mm
01:55 PM 92.1°F33.4°C 62.7°F17.1°C 38% 8.5 mph SW13.7 kmh SW 12.3 mph19.8 kmh 29.82 in1009.8 mb 0.00 in0.0 mm 0.00 in0.0 mm 0.00 in0.0 mm
02:00 PM 92.5°F33.6°C 63.0°F17.2°C 38% 2.2 mph SW3.5 kmh SW 12.1 mph19.5 kmh 29.82 in1009.8 mb 0.00 in0.0 mm 0.00 in0.0 mm 0.00 in0.0 mm
02:05 PM 92.8°F33.8°C 62.5°F16.9°C 37% 12.1 mph SW19.5 kmh SW 18.3 mph29.5 kmh 29.83 in1010.2 mb 0.00 in0.0 mm 0.00 in0.0 mm 0.00 in0.0 mm
02:10 PM 92.3°F33.5°C 63.7°F17.6°C 39% 11.4 mph SW18.3 kmh SW 18.3 mph29.5 kmh 29.82 in1009.8 mb 0.00 in0.0 mm 0.00 in0.0 mm 0.00 in0.0 mm
02:15 PM 91.8°F33.2°C 63.2°F17.3°C 39% 5.6 mph SSW9.0 kmh SSW 16.3 mph26.2 kmh 29.82 in1009.8 mb 0.00 in0.0 mm 0.00 in0.0 mm 0.00 in0.0 mm
02:20 PM 92.1°F33.4°C 62.7°F17.1°C 38% 4.3 mph SSW6.9 kmh SSW 14.3 mph23.0 kmh 29.83 in1010.2 mb 0.00 in0.0 mm 0.00 in0.0 mm 0.00 in0.0 mm
02:25 PM 92.1°F33.4°C 61.1°F16.2°C 36% 10.7 mph SSW17.2 kmh SSW 17.7 mph28.5 kmh 29.83 in1010.2 mb 0.00 in0.0 mm 0.00 in0.0 mm 0.00 in0.0 mm
02:30 PM 91.9°F33.3°C 62.6°F17.0°C 38% 11.0 mph SSW17.7 kmh SSW 17.7 mph28.5 kmh 29.82 in1009.8 mb 0.00 in0.0 mm 0.00 in0.0 mm 0.00 in0.0 mm
02:35 PM 92.3°F33.5°C 61.3°F16.3°C 36% 9.2 mph SW14.8 kmh SW 15.7 mph25.3 kmh 29.83 in1010.2 mb 0.00 in0.0 mm 0.00 in0.0 mm 0.00 in0.0 mm
02:40 PM 92.3°F33.5°C 61.3°F16.3°C 36% 11.6 mph SW18.7 kmh SW 16.8 mph27.0 kmh 29.83 in1010.2 mb 0.00 in0.0 mm 0.00 in0.0 mm 0.00 in0.0 mm
02:45 PM 92.5°F33.6°C 60.6°F15.9°C 35% 2.2 mph SSW3.5 kmh SSW 16.8 mph27.0 kmh 29.83 in1010.2 mb 0.00 in0.0 mm 0.00 in0.0 mm 0.00 in0.0 mm
02:50 PM 93.0°F33.9°C 61.1°F16.2°C 35% 6.3 mph SW10.1 kmh SW 14.3 mph23.0 kmh 29.83 in1010.2 mb 0.00 in0.0 mm 0.00 in0.0 mm 0.00 in0.0 mm
02:55 PM 93.0°F33.9°C 61.1°F16.2°C 35% 8.3 mph SW13.4 kmh SW 15.7 mph25.3 kmh 29.83 in1010.2 mb 0.00 in0.0 mm 0.00 in0.0 mm 0.00 in0.0 mm
03:00 PM 93.0°F33.9°C 61.1°F16.2°C 35% 5.4 mph SSW8.7 kmh SSW 15.7 mph25.3 kmh 29.83 in1010.2 mb 0.00 in0.0 mm 0.00 in0.0 mm 0.00 in0.0 mm
03:05 PM 92.8°F33.8°C 60.1°F15.6°C 34% 4.5 mph SSW7.2 kmh SSW 16.3 mph26.2 kmh 29.83 in1010.2 mb 0.00 in0.0 mm 0.00 in0.0 mm 0.00 in0.0 mm
03:10 PM 93.0°F33.9°C 60.3°F15.7°C 34% 8.9 mph SSW14.3 kmh SSW 16.3 mph26.2 kmh 29.83 in1010.2 mb 0.00 in0.0 mm 0.00 in0.0 mm 0.00 in0.0 mm
03:15 PM 93.4°F34.1°C 59.8°F15.4°C 33% 4.0 mph SW6.4 kmh SW 14.3 mph23.0 kmh 29.83 in1010.2 mb 0.00 in0.0 mm 0.00 in0.0 mm 0.00 in0.0 mm
03:20 PM 93.4°F34.1°C 59.8°F15.4°C 33% 4.7 mph SW7.6 kmh SW 13.9 mph22.4 kmh 29.83 in1010.2 mb 0.00 in0.0 mm 0.00 in0.0 mm 0.00 in0.0 mm
03:25 PM 93.4°F34.1°C 59.8°F15.4°C 33% 8.9 mph SW14.3 kmh SW 15.4 mph24.8 kmh 29.83 in1010.2 mb 0.00 in0.0 mm 0.00 in0.0 mm 0.00 in0.0 mm
03:30 PM 92.8°F33.8°C 59.3°F15.2°C 33% 1.8 mph SW2.9 kmh SW 15.9 mph25.6 kmh 29.83 in1010.2 mb 0.00 in0.0 mm 0.00 in0.0 mm 0.00 in0.0 mm
03:35 PM 93.4°F34.1°C 59.8°F15.4°C 33% 5.4 mph SW8.7 kmh SW 15.9 mph25.6 kmh 29.83 in1010.2 mb 0.00 in0.0 mm 0.00 in0.0 mm 0.00 in0.0 mm
03:40 PM 92.8°F33.8°C 60.1°F15.6°C 34% 8.1 mph N13.0 kmh N 12.5 mph20.1 kmh 29.83 in1010.2 mb 0.00 in0.0 mm 0.00 in0.0 mm 0.00 in0.0 mm
03:45 PM 91.9°F33.3°C 59.4°F15.2°C 34% 4.7 mph NNE7.6 kmh NNE 12.8 mph20.6 kmh 29.83 in1010.2 mb 0.00 in0.0 mm 0.00 in0.0 mm 0.00 in0.0 mm
03:50 PM 91.8°F33.2°C 59.2°F15.1°C 34% 10.1 mph NE16.3 kmh NE 12.8 mph20.6 kmh 29.83 in1010.2 mb 0.00 in0.0 mm 0.00 in0.0 mm 0.00 in0.0 mm
03:55 PM 91.6°F33.1°C 59.1°F15.1°C 34% 5.4 mph NE8.7 kmh NE 12.1 mph19.5 kmh 29.83 in1010.2 mb 0.00 in0.0 mm 0.00 in0.0 mm 0.00 in0.0 mm
04:00 PM 91.2°F32.9°C 58.8°F14.9°C 34% 1.8 mph ENE2.9 kmh ENE 12.8 mph20.6 kmh 29.83 in1010.2 mb 0.00 in0.0 mm 0.00 in0.0 mm 0.00 in0.0 mm
04:05 PM 91.6°F33.1°C 59.1°F15.1°C 34% 0.9 mph ENE1.4 kmh ENE 12.8 mph20.6 kmh 29.83 in1010.2 mb 0.00 in0.0 mm 0.00 in0.0 mm 0.00 in0.0 mm
04:10 PM 91.6°F33.1°C 59.1°F15.1°C 34% 4.7 mph E7.6 kmh E 11.9 mph19.2 kmh 29.83 in1010.2 mb 0.00 in0.0 mm 0.00 in0.0 mm 0.00 in0.0 mm
04:15 PM 90.7°F32.6°C 59.1°F15.1°C 35% 7.6 mph E12.2 kmh E 12.5 mph20.1 kmh 29.83 in1010.2 mb 0.00 in0.0 mm 0.00 in0.0 mm 0.00 in0.0 mm
04:20 PM 90.3°F32.4°C 58.7°F14.8°C 35% 2.9 mph E4.7 kmh E 12.5 mph20.1 kmh 29.83 in1010.2 mb 0.00 in0.0 mm 0.00 in0.0 mm 0.00 in0.0 mm
04:25 PM 90.3°F32.4°C 59.5°F15.3°C 36% 5.4 mph E8.7 kmh E 9.4 mph15.1 kmh 29.83 in1010.2 mb 0.00 in0.0 mm 0.00 in0.0 mm 0.00 in0.0 mm
04:30 PM 90.0°F32.2°C 59.2°F15.1°C 36% 3.6 mph E5.8 kmh E 8.7 mph14.0 kmh 29.83 in1010.2 mb 0.00 in0.0 mm 0.00 in0.0 mm 0.00 in0.0 mm
04:35 PM 90.1°F32.3°C 60.2°F15.7°C 37% 1.6 mph E2.6 kmh E 8.5 mph13.7 kmh 29.83 in1010.2 mb 0.00 in0.0 mm 0.00 in0.0 mm 0.00 in0.0 mm
04:40 PM 90.0°F32.2°C 60.0°F15.6°C 37% 2.9 mph E4.7 kmh E 8.5 mph13.7 kmh 29.83 in1010.2 mb 0.00 in0.0 mm 0.00 in0.0 mm 0.00 in0.0 mm
04:45 PM 90.3°F32.4°C 60.3°F15.7°C 37% 2.9 mph ENE4.7 kmh ENE 8.1 mph13.0 kmh 29.83 in1010.2 mb 0.00 in0.0 mm 0.00 in0.0 mm 0.00 in0.0 mm
04:50 PM 90.1°F32.3°C 60.2°F15.7°C 37% 4.0 mph NE6.4 kmh NE 9.6 mph15.4 kmh 29.83 in1010.2 mb 0.00 in0.0 mm 0.00 in0.0 mm 0.00 in0.0 mm
04:55 PM 90.0°F32.2°C 61.6°F16.4°C 39% 5.4 mph ENE8.7 kmh ENE 9.6 mph15.4 kmh 29.83 in1010.2 mb 0.00 in0.0 mm 0.00 in0.0 mm 0.00 in0.0 mm
05:00 PM 89.4°F31.9°C 61.1°F16.2°C 39% 5.4 mph ENE8.7 kmh ENE 8.9 mph14.3 kmh 29.83 in1010.2 mb 0.00 in0.0 mm 0.00 in0.0 mm 0.00 in0.0 mm
05:05 PM 89.4°F31.9°C 61.1°F16.2°C 39% 2.2 mph E3.5 kmh E 7.6 mph12.2 kmh 29.83 in1010.2 mb 0.00 in0.0 mm 0.00 in0.0 mm 0.00 in0.0 mm
05:10 PM 89.4°F31.9°C 61.1°F16.2°C 39% 3.6 mph E5.8 kmh E 7.6 mph12.2 kmh 29.83 in1010.2 mb 0.00 in0.0 mm 0.00 in0.0 mm 0.00 in0.0 mm
05:15 PM 89.2°F31.8°C 61.8°F16.6°C 40% 2.2 mph E3.5 kmh E 8.5 mph13.7 kmh 29.84 in1010.5 mb 0.00 in0.0 mm 0.00 in0.0 mm 0.00 in0.0 mm
05:20 PM 89.2°F31.8°C 61.8°F16.6°C 40% 3.4 mph NE5.5 kmh NE 8.5 mph13.7 kmh 29.83 in1010.2 mb 0.00 in0.0 mm 0.00 in0.0 mm 0.00 in0.0 mm
05:25 PM 89.4°F31.9°C 61.9°F16.6°C 40% 2.9 mph NE4.7 kmh NE 6.9 mph11.1 kmh 29.83 in1010.2 mb 0.00 in0.0 mm 0.00 in0.0 mm 0.00 in0.0 mm
05:30 PM 89.4°F31.9°C 61.9°F16.6°C 40% 3.4 mph NE5.5 kmh NE 6.9 mph11.1 kmh 29.83 in1010.2 mb 0.00 in0.0 mm 0.00 in0.0 mm 0.00 in0.0 mm
05:35 PM 89.4°F31.9°C 61.9°F16.6°C 40% 1.3 mph NE2.1 kmh NE 6.9 mph11.1 kmh 29.83 in1010.2 mb 0.00 in0.0 mm 0.00 in0.0 mm 0.00 in0.0 mm
05:40 PM 89.4°F31.9°C 61.9°F16.6°C 40% 6.3 mph NE10.1 kmh NE 8.1 mph13.0 kmh 29.83 in1010.2 mb 0.00 in0.0 mm 0.00 in0.0 mm 0.00 in0.0 mm
05:45 PM 89.4°F31.9°C 61.9°F16.6°C 40% 3.1 mph NE5.0 kmh NE 8.1 mph13.0 kmh 29.83 in1010.2 mb 0.00 in0.0 mm 0.00 in0.0 mm 0.00 in0.0 mm
05:50 PM 89.6°F32.0°C 62.1°F16.7°C 40% 2.7 mph NE4.3 kmh NE 6.7 mph10.8 kmh 29.84 in1010.5 mb 0.00 in0.0 mm 0.00 in0.0 mm 0.00 in0.0 mm
05:55 PM 89.8°F32.1°C 62.2°F16.8°C 40% 4.7 mph NE7.6 kmh NE 7.4 mph11.9 kmh 29.84 in1010.5 mb 0.00 in0.0 mm 0.00 in0.0 mm 0.00 in0.0 mm
06:00 PM 89.2°F31.8°C 61.8°F16.6°C 40% 3.8 mph NE6.1 kmh NE 10.1 mph16.3 kmh 29.84 in1010.5 mb 0.00 in0.0 mm 0.00 in0.0 mm 0.00 in0.0 mm
06:05 PM 88.5°F31.4°C 61.8°F16.6°C 41% 1.8 mph ENE2.9 kmh ENE 10.1 mph16.3 kmh 29.84 in1010.5 mb 0.00 in0.0 mm 0.00 in0.0 mm 0.00 in0.0 mm
06:10 PM 88.2°F31.2°C 61.5°F16.4°C 41% 2.2 mph E3.5 kmh E 6.3 mph10.1 kmh 29.84 in1010.5 mb 0.00 in0.0 mm 0.00 in0.0 mm 0.00 in0.0 mm
06:15 PM 88.0°F31.1°C 62.0°F16.7°C 42% 0.9 mph E1.4 kmh E 5.4 mph8.7 kmh 29.84 in1010.5 mb 0.00 in0.0 mm 0.00 in0.0 mm 0.00 in0.0 mm
06:20 PM 88.0°F31.1°C 62.0°F16.7°C 42% 3.6 mph SE5.8 kmh SE 6.3 mph10.1 kmh 29.84 in1010.5 mb 0.00 in0.0 mm 0.00 in0.0 mm 0.00 in0.0 mm
06:25 PM 88.0°F31.1°C 62.0°F16.7°C 42% 2.0 mph S3.2 kmh S 6.3 mph10.1 kmh 29.84 in1010.5 mb 0.00 in0.0 mm 0.00 in0.0 mm 0.00 in0.0 mm
06:30 PM 88.0°F31.1°C 62.0°F16.7°C 42% 1.8 mph N2.9 kmh N 4.7 mph7.6 kmh 29.84 in1010.5 mb 0.00 in0.0 mm 0.00 in0.0 mm 0.00 in0.0 mm
06:35 PM 87.4°F30.8°C 62.2°F16.8°C 43% 5.4 mph NNE8.7 kmh NNE 8.1 mph13.0 kmh 29.84 in1010.5 mb 0.00 in0.0 mm 0.00 in0.0 mm 0.00 in0.0 mm
06:40 PM 87.4°F30.8°C 62.2°F16.8°C 43% 4.3 mph NNE6.9 kmh NNE 8.1 mph13.0 kmh 29.84 in1010.5 mb 0.00 in0.0 mm 0.00 in0.0 mm 0.00 in0.0 mm
06:45 PM 86.9°F30.5°C 61.7°F16.5°C 43% 3.4 mph NNE5.5 kmh NNE 6.3 mph10.1 kmh 29.84 in1010.5 mb 0.00 in0.0 mm 0.00 in0.0 mm 0.00 in0.0 mm
06:50 PM 86.9°F30.5°C 61.7°F16.5°C 43% 0.7 mph NE1.1 kmh NE 4.9 mph7.9 kmh 29.84 in1010.5 mb 0.00 in0.0 mm 0.00 in0.0 mm 0.00 in0.0 mm
06:55 PM 86.7°F30.4°C 61.5°F16.4°C 43% Calm Calm 3.1 mph5.0 kmh 29.84 in1010.5 mb 0.00 in0.0 mm 0.00 in0.0 mm 0.00 in0.0 mm
07:00 PM 86.7°F30.4°C 62.2°F16.8°C 44% 1.6 mph S2.6 kmh S 3.6 mph5.8 kmh 29.84 in1010.5 mb 0.00 in0.0 mm 0.00 in0.0 mm 0.00 in0.0 mm
07:05 PM 86.5°F30.3°C 61.4°F16.3°C 43% 2.2 mph S3.5 kmh S 3.8 mph6.1 kmh 29.84 in1010.5 mb 0.00 in0.0 mm 0.00 in0.0 mm 0.00 in0.0 mm
07:10 PM 86.4°F30.2°C 61.8°F16.6°C 44% 1.3 mph SSW2.1 kmh SSW 3.8 mph6.1 kmh 29.84 in1010.5 mb 0.00 in0.0 mm 0.00 in0.0 mm 0.00 in0.0 mm
07:15 PM 86.2°F30.1°C 61.7°F16.5°C 44% Calm Calm 3.6 mph5.8 kmh 29.84 in1010.5 mb 0.00 in0.0 mm 0.00 in0.0 mm 0.00 in0.0 mm
07:20 PM 86.2°F30.1°C 61.7°F16.5°C 44% 2.0 mph SW3.2 kmh SW 2.0 mph3.2 kmh 29.84 in1010.5 mb 0.00 in0.0 mm 0.00 in0.0 mm 0.00 in0.0 mm
07:25 PM 85.6°F29.8°C 61.8°F16.6°C 45% Calm Calm 2.0 mph3.2 kmh 29.85 in1010.8 mb 0.00 in0.0 mm 0.00 in0.0 mm 0.00 in0.0 mm
07:30 PM 85.3°F29.6°C 61.5°F16.4°C 45% Calm Calm 2.0 mph3.2 kmh 29.84 in1010.5 mb 0.00 in0.0 mm 0.00 in0.0 mm 0.00 in0.0 mm
07:35 PM 84.7°F29.3°C 61.0°F16.1°C 45% 1.6 mph SW2.6 kmh SW 1.6 mph2.6 kmh 29.85 in1010.8 mb 0.00 in0.0 mm 0.00 in0.0 mm 0.00 in0.0 mm
07:40 PM 84.2°F29.0°C 61.2°F16.2°C 46% 1.6 mph WSW2.6 kmh WSW 2.2 mph3.5 kmh 29.85 in1010.8 mb 0.00 in0.0 mm 0.00 in0.0 mm 0.00 in0.0 mm
07:45 PM 83.8°F28.8°C 60.8°F16.0°C 46% 1.6 mph SW2.6 kmh SW 3.4 mph5.5 kmh 29.85 in1010.8 mb 0.00 in0.0 mm 0.00 in0.0 mm 0.00 in0.0 mm
07:50 PM 83.3°F28.5°C 60.3°F15.7°C 46% 1.6 mph SW2.6 kmh SW 3.6 mph5.8 kmh 29.84 in1010.5 mb 0.00 in0.0 mm 0.00 in0.0 mm 0.00 in0.0 mm
07:55 PM 82.8°F28.2°C 60.4°F15.8°C 47% 1.6 mph SW2.6 kmh SW 3.8 mph6.1 kmh 29.84 in1010.5 mb 0.00 in0.0 mm 0.00 in0.0 mm 0.00 in0.0 mm
08:00 PM 82.4°F28.0°C 60.0°F15.6°C 47% 1.6 mph SW2.6 kmh SW 3.8 mph6.1 kmh 29.84 in1010.5 mb 0.00 in0.0 mm 0.00 in0.0 mm 0.00 in0.0 mm
08:05 PM 82.0°F27.8°C 60.9°F16.1°C 49% Calm Calm 3.8 mph6.1 kmh 29.84 in1010.5 mb 0.00 in0.0 mm 0.00 in0.0 mm 0.00 in0.0 mm
08:10 PM 81.7°F27.6°C 60.6°F15.9°C 49% 3.4 mph SW5.5 kmh SW 3.8 mph6.1 kmh 29.84 in1010.5 mb 0.00 in0.0 mm 0.00 in0.0 mm 0.00 in0.0 mm
08:15 PM 81.3°F27.4°C 60.3°F15.7°C 49% 2.2 mph SW3.5 kmh SW 3.8 mph6.1 kmh 29.84 in1010.5 mb 0.00 in0.0 mm 0.00 in0.0 mm 0.00 in0.0 mm
08:20 PM 81.1°F27.3°C 60.1°F15.6°C 49% 1.8 mph SW2.9 kmh SW 3.6 mph5.8 kmh 29.84 in1010.5 mb 0.00 in0.0 mm 0.00 in0.0 mm 0.00 in0.0 mm
08:25 PM 80.8°F27.1°C 60.4°F15.8°C 50% 2.9 mph SW4.7 kmh SW 3.1 mph5.0 kmh 29.84 in1010.5 mb 0.00 in0.0 mm 0.00 in0.0 mm 0.00 in0.0 mm
08:30 PM 80.4°F26.9°C 60.6°F15.9°C 51% 3.1 mph SW5.0 kmh SW 3.1 mph5.0 kmh 29.84 in1010.5 mb 0.00 in0.0 mm 0.00 in0.0 mm 0.00 in0.0 mm
08:35 PM 80.2°F26.8°C 60.5°F15.8°C 51% 1.6 mph SW2.6 kmh SW 3.4 mph5.5 kmh 29.84 in1010.5 mb 0.00 in0.0 mm 0.00 in0.0 mm 0.00 in0.0 mm
08:40 PM 80.1°F26.7°C 60.8°F16.0°C 52% 2.7 mph SW4.3 kmh SW 3.8 mph6.1 kmh 29.84 in1010.5 mb 0.00 in0.0 mm 0.00 in0.0 mm 0.00 in0.0 mm
08:45 PM 79.9°F26.6°C 60.7°F15.9°C 52% 3.8 mph SW6.1 kmh SW 4.0 mph6.4 kmh 29.84 in1010.5 mb 0.00 in0.0 mm 0.00 in0.0 mm 0.00 in0.0 mm
08:50 PM 80.1°F26.7°C 60.8°F16.0°C 52% Calm Calm 5.1 mph8.2 kmh 29.84 in1010.5 mb 0.00 in0.0 mm 0.00 in0.0 mm 0.00 in0.0 mm
08:55 PM 80.2°F26.8°C 60.5°F15.8°C 51% Calm Calm 5.1 mph8.2 kmh 29.84 in1010.5 mb 0.00 in0.0 mm 0.00 in0.0 mm 0.00 in0.0 mm
09:00 PM 80.2°F26.8°C 60.5°F15.8°C 51% 2.7 mph SW4.3 kmh SW 4.5 mph7.2 kmh 29.84 in1010.5 mb 0.00 in0.0 mm 0.00 in0.0 mm 0.00 in0.0 mm
09:05 PM 80.2°F26.8°C 60.5°F15.8°C 51% Calm Calm 5.8 mph9.3 kmh 29.84 in1010.5 mb 0.00 in0.0 mm 0.00 in0.0 mm 0.00 in0.0 mm
09:10 PM 80.1°F26.7°C 60.3°F15.7°C 51% Calm Calm 5.8 mph9.3 kmh 29.84 in1010.5 mb 0.00 in0.0 mm 0.00 in0.0 mm 0.00 in0.0 mm
09:15 PM 79.9°F26.6°C 60.1°F15.6°C 51% 2.5 mph SW4.0 kmh SW 5.4 mph8.7 kmh 29.84 in1010.5 mb 0.00 in0.0 mm 0.00 in0.0 mm 0.00 in0.0 mm
09:20 PM 80.4°F26.9°C 60.1°F15.6°C 50% 3.8 mph SW6.1 kmh SW 10.3 mph16.6 kmh 29.84 in1010.5 mb 0.00 in0.0 mm 0.00 in0.0 mm 0.00 in0.0 mm
09:25 PM 81.5°F27.5°C 59.2°F15.1°C 47% 4.3 mph SSW6.9 kmh SSW 10.3 mph16.6 kmh 29.84 in1010.5 mb 0.00 in0.0 mm 0.00 in0.0 mm 0.00 in0.0 mm
09:30 PM 82.0°F27.8°C 58.5°F14.7°C 45% 7.2 mph SSW11.6 kmh SSW 9.2 mph14.8 kmh 29.84 in1010.5 mb 0.00 in0.0 mm 0.00 in0.0 mm 0.00 in0.0 mm
09:35 PM 82.2°F27.9°C 58.0°F14.4°C 44% 7.8 mph SSW12.6 kmh SSW 8.9 mph14.3 kmh 29.85 in1010.8 mb 0.00 in0.0 mm 0.00 in0.0 mm 0.00 in0.0 mm
09:40 PM 82.2°F27.9°C 56.2°F13.4°C 41% 7.8 mph SSW12.6 kmh SSW 9.8 mph15.8 kmh 29.84 in1010.5 mb 0.00 in0.0 mm 0.00 in0.0 mm 0.00 in0.0 mm
09:45 PM 82.8°F28.2°C 56.1°F13.4°C 40% 8.1 mph SSW13.0 kmh SSW 10.7 mph17.2 kmh 29.84 in1010.5 mb 0.00 in0.0 mm 0.00 in0.0 mm 0.00 in0.0 mm
09:50 PM 82.9°F28.3°C 56.2°F13.4°C 40% 7.4 mph SSW11.9 kmh SSW 10.7 mph17.2 kmh 29.84 in1010.5 mb 0.00 in0.0 mm 0.00 in0.0 mm 0.00 in0.0 mm
09:55 PM 83.1°F28.4°C 55.6°F13.1°C 39% 10.5 mph SSW16.9 kmh SSW 12.3 mph19.8 kmh 29.84 in1010.5 mb 0.00 in0.0 mm 0.00 in0.0 mm 0.00 in0.0 mm
10:00 PM 83.3°F28.5°C 55.8°F13.2°C 38% 5.1 mph SSW8.2 kmh SSW 12.3 mph19.8 kmh 29.84 in1010.5 mb 0.00 in0.0 mm 0.00 in0.0 mm 0.00 in0.0 mm
10:05 PM 83.5°F28.6°C 55.1°F12.8°C 38% 8.1 mph SSW13.0 kmh SSW 11.9 mph19.2 kmh 29.84 in1010.5 mb 0.00 in0.0 mm 0.00 in0.0 mm 0.00 in0.0 mm
10:10 PM 83.5°F28.6°C 54.4°F12.4°C 37% 5.1 mph S8.2 kmh S 10.3 mph16.6 kmh 29.84 in1010.5 mb 0.00 in0.0 mm 0.00 in0.0 mm 0.00 in0.0 mm
10:15 PM 83.5°F28.6°C 54.4°F12.4°C 37% 7.6 mph SSW12.2 kmh SSW 10.3 mph16.6 kmh 29.84 in1010.5 mb 0.00 in0.0 mm 0.00 in0.0 mm 0.00 in0.0 mm
10:20 PM 83.3°F28.5°C 54.2°F12.3°C 37% 9.8 mph SSW15.8 kmh SSW 11.6 mph18.7 kmh 29.84 in1010.5 mb 0.00 in0.0 mm 0.00 in0.0 mm 0.00 in0.0 mm
10:25 PM 83.3°F28.5°C 54.2°F12.3°C 37% 7.6 mph SSW12.2 kmh SSW 11.6 mph18.7 kmh 29.84 in1010.5 mb 0.00 in0.0 mm 0.00 in0.0 mm 0.00 in0.0 mm
10:30 PM 83.1°F28.4°C 54.0°F12.2°C 37% 4.9 mph SSW7.9 kmh SSW 10.7 mph17.2 kmh 29.84 in1010.5 mb 0.00 in0.0 mm 0.00 in0.0 mm 0.00 in0.0 mm
10:35 PM 83.1°F28.4°C 54.0°F12.2°C 37% 4.5 mph SSW7.2 kmh SSW 11.0 mph17.7 kmh 29.84 in1010.5 mb 0.00 in0.0 mm 0.00 in0.0 mm 0.00 in0.0 mm
10:40 PM 82.8°F28.2°C 54.5°F12.5°C 38% 4.7 mph SW7.6 kmh SW 11.0 mph17.7 kmh 29.84 in1010.5 mb 0.00 in0.0 mm 0.00 in0.0 mm 0.00 in0.0 mm
10:45 PM 82.6°F28.1°C 54.3°F12.4°C 38% 6.3 mph SW10.1 kmh SW 9.2 mph14.8 kmh 29.84 in1010.5 mb 0.00 in0.0 mm 0.00 in0.0 mm 0.00 in0.0 mm
10:50 PM 82.2°F27.9°C 54.0°F12.2°C 38% 4.5 mph SW7.2 kmh SW 8.1 mph13.0 kmh 29.84 in1010.5 mb 0.00 in0.0 mm 0.00 in0.0 mm 0.00 in0.0 mm
10:55 PM 82.2°F27.9°C 54.0°F12.2°C 38% 5.4 mph SW8.7 kmh SW 7.6 mph12.2 kmh 29.84 in1010.5 mb 0.00 in0.0 mm 0.00 in0.0 mm 0.00 in0.0 mm
11:00 PM 82.0°F27.8°C 53.9°F12.2°C 38% 3.8 mph SW6.1 kmh SW 9.2 mph14.8 kmh 29.84 in1010.5 mb 0.00 in0.0 mm 0.00 in0.0 mm 0.00 in0.0 mm
11:05 PM 81.5°F27.5°C 53.5°F11.9°C 38% 4.3 mph SW6.9 kmh SW 9.2 mph14.8 kmh 29.84 in1010.5 mb 0.00 in0.0 mm 0.00 in0.0 mm 0.00 in0.0 mm
11:10 PM 82.0°F27.8°C 53.1°F11.7°C 37% 4.3 mph SW6.9 kmh SW 9.2 mph14.8 kmh 29.84 in1010.5 mb 0.00 in0.0 mm 0.00 in0.0 mm 0.00 in0.0 mm
11:15 PM 82.4°F28.0°C 52.6°F11.4°C 36% 8.7 mph SSW14.0 kmh SSW 9.6 mph15.4 kmh 29.84 in1010.5 mb 0.00 in0.0 mm 0.00 in0.0 mm 0.00 in0.0 mm
11:20 PM 82.9°F28.3°C 52.3°F11.3°C 35% 11.2 mph SSW18.0 kmh SSW 11.9 mph19.2 kmh 29.84 in1010.5 mb 0.00 in0.0 mm 0.00 in0.0 mm 0.00 in0.0 mm
11:25 PM 83.1°F28.4°C 52.4°F11.3°C 35% 9.2 mph SSW14.8 kmh SSW 12.8 mph20.6 kmh 29.85 in1010.8 mb 0.00 in0.0 mm 0.00 in0.0 mm 0.00 in0.0 mm
11:30 PM 83.3°F28.5°C 52.6°F11.4°C 35% 12.3 mph SSW19.8 kmh SSW 13.0 mph20.9 kmh 29.84 in1010.5 mb 0.00 in0.0 mm 0.00 in0.0 mm 0.00 in0.0 mm
11:35 PM 82.9°F28.3°C 52.3°F11.3°C 35% 7.4 mph SW11.9 kmh SW 13.0 mph20.9 kmh 29.84 in1010.5 mb 0.00 in0.0 mm 0.00 in0.0 mm 0.00 in0.0 mm
11:40 PM 82.2°F27.9°C 52.4°F11.3°C 36% 8.5 mph SW13.7 kmh SW 13.2 mph21.2 kmh 29.84 in1010.5 mb 0.00 in0.0 mm 0.00 in0.0 mm 0.00 in0.0 mm
11:45 PM 81.7°F27.6°C 52.0°F11.1°C 36% 6.9 mph SW11.1 kmh SW 13.2 mph21.2 kmh 29.84 in1010.5 mb 0.00 in0.0 mm 0.00 in0.0 mm 0.00 in0.0 mm
11:50 PM 81.3°F27.4°C 52.4°F11.3°C 37% 11.4 mph SW18.3 kmh SW 13.0 mph20.9 kmh 29.84 in1010.5 mb 0.00 in0.0 mm 0.00 in0.0 mm 0.00 in0.0 mm
11:55 PM 81.1°F27.3°C 53.1°F11.7°C 38% 4.7 mph SW7.6 kmh SW 13.0 mph20.9 kmh 29.84 in1010.5 mb 0.00 in0.0 mm 0.00 in0.0 mm 0.00 in0.0 mm